createdAt,value
2018-07-23T00:01:06.522Z,18.00
2018-07-23T00:03:43.442Z,17.83
2018-07-23T00:06:20.484Z,17.89
2018-07-23T00:08:52.273Z,17.83
2018-07-23T00:11:28.807Z,17.89
2018-07-23T00:14:02.160Z,17.87
2018-07-23T00:16:38.009Z,17.72
2018-07-23T00:19:14.630Z,17.80
2018-07-23T00:21:52.557Z,17.98
2018-07-23T00:24:30.956Z,17.91
2018-07-23T00:27:10.144Z,17.92
2018-07-23T00:29:44.133Z,17.86
2018-07-23T00:32:17.133Z,17.87
2018-07-23T00:34:48.248Z,17.88
2018-07-23T00:37:19.350Z,17.94
2018-07-23T00:39:50.451Z,17.99
2018-07-23T00:42:21.900Z,17.92
2018-07-23T00:44:52.947Z,17.84
2018-07-23T00:47:24.032Z,17.74
2018-07-23T00:49:54.927Z,17.60
2018-07-23T00:52:26.277Z,17.57
2018-07-23T00:54:57.208Z,17.72
2018-07-23T00:57:28.584Z,17.84
2018-07-23T00:59:59.668Z,17.82
2018-07-23T01:02:30.820Z,17.80
2018-07-23T01:05:01.970Z,17.82
2018-07-23T01:07:33.093Z,17.86
2018-07-23T01:10:04.631Z,17.81
2018-07-23T01:12:36.323Z,17.84
2018-07-23T01:15:08.236Z,17.91
2018-07-23T01:17:41.735Z,17.94
2018-07-23T01:20:14.476Z,17.93
2018-07-23T01:22:45.476Z,17.74
2018-07-23T01:25:24.488Z,17.71
2018-07-23T01:28:03.711Z,17.73
2018-07-23T01:30:37.614Z,17.78
2018-07-23T01:33:10.338Z,17.51
2018-07-23T01:35:46.485Z,17.59
2018-07-23T01:38:24.477Z,17.65
2018-07-23T01:40:57.343Z,17.69
2018-07-23T01:43:28.612Z,17.72
2018-07-23T01:46:04.531Z,17.64
2018-07-23T01:48:36.812Z,17.58
2018-07-23T01:51:07.903Z,17.64
2018-07-23T01:53:39.293Z,17.59
2018-07-23T01:56:10.326Z,17.55
2018-07-23T01:58:41.307Z,17.49
2018-07-23T02:01:13.195Z,17.55
2018-07-23T02:03:44.744Z,17.57
2018-07-23T02:06:15.773Z,17.42
2018-07-23T02:08:46.838Z,17.46
2018-07-23T02:11:18.239Z,17.55
2018-07-23T02:13:49.246Z,17.62
2018-07-23T02:16:20.195Z,17.53
2018-07-23T02:18:51.180Z,17.42
2018-07-23T02:21:22.212Z,17.39
2018-07-23T02:23:53.777Z,17.38
2018-07-23T02:26:24.760Z,17.30
2018-07-23T02:28:58.496Z,17.44
2018-07-23T02:31:29.755Z,17.43
2018-07-23T02:34:00.929Z,17.47
2018-07-23T02:36:32.407Z,17.47
2018-07-23T02:39:03.646Z,17.50
2018-07-23T02:41:34.707Z,17.48
2018-07-23T02:44:05.947Z,17.42
2018-07-23T02:46:37.061Z,17.43
2018-07-23T02:49:08.540Z,17.43
2018-07-23T02:51:39.702Z,17.31
2018-07-23T02:54:11.110Z,17.31
2018-07-23T02:56:42.107Z,17.47
2018-07-23T02:59:13.155Z,17.47
2018-07-23T03:01:44.182Z,17.37
2018-07-23T03:04:15.230Z,17.38
2018-07-23T03:06:46.170Z,17.39
2018-07-23T03:09:17.290Z,17.30
2018-07-23T03:11:48.647Z,17.32
2018-07-23T03:14:19.797Z,17.27
2018-07-23T03:16:50.824Z,17.23
2018-07-23T03:19:22.245Z,17.25
2018-07-23T03:21:53.307Z,17.13
2018-07-23T03:24:25.112Z,17.31
2018-07-23T03:26:56.484Z,17.26
2018-07-23T03:29:27.538Z,17.19
2018-07-23T03:31:58.708Z,17.20
2018-07-23T03:34:30.168Z,17.12
2018-07-23T03:37:01.499Z,16.99
2018-07-23T03:39:32.905Z,17.10
2018-07-23T03:42:05.548Z,17.11
2018-07-23T03:44:36.958Z,17.16
2018-07-23T03:47:10.399Z,17.24
2018-07-23T03:49:42.305Z,17.25
2018-07-23T03:52:13.726Z,17.26
2018-07-23T03:54:45.512Z,17.24
2018-07-23T03:57:18.912Z,17.26
2018-07-23T03:59:50.221Z,17.30
2018-07-23T04:02:21.119Z,17.28
2018-07-23T04:04:52.296Z,17.32
2018-07-23T04:07:23.754Z,17.30
2018-07-23T04:09:54.869Z,17.25
2018-07-23T04:12:26.535Z,17.29
2018-07-23T04:14:58.259Z,17.25
2018-07-23T04:17:29.283Z,17.34
2018-07-23T04:20:00.857Z,17.35
2018-07-23T04:22:32.035Z,17.44
2018-07-23T04:25:03.657Z,17.38
2018-07-23T04:27:34.673Z,17.28
2018-07-23T04:30:06.246Z,17.37
2018-07-23T04:32:37.391Z,17.44
2018-07-23T04:35:11.799Z,17.45
2018-07-23T04:37:43.094Z,17.34
2018-07-23T04:40:14.517Z,17.39
2018-07-23T04:42:45.659Z,17.52
2018-07-23T04:45:19.004Z,17.53
2018-07-23T04:47:51.989Z,17.58
2018-07-23T04:50:25.759Z,17.62
2018-07-23T04:52:56.954Z,17.60
2018-07-23T04:55:28.415Z,17.37
2018-07-23T04:57:59.648Z,17.50
2018-07-23T05:00:33.365Z,17.55
2018-07-23T05:03:05.153Z,17.64
2018-07-23T05:05:36.723Z,17.75
2018-07-23T05:08:12.988Z,17.81
2018-07-23T05:10:45.208Z,17.92
2018-07-23T05:13:16.356Z,17.96
2018-07-23T05:15:47.576Z,18.21
2018-07-23T05:18:18.602Z,18.14
2018-07-23T05:20:49.718Z,18.21
2018-07-23T05:23:20.804Z,18.24
2018-07-23T05:25:51.893Z,18.26
2018-07-23T05:28:22.916Z,18.30
2018-07-23T05:30:53.784Z,18.36
2018-07-23T05:33:24.660Z,18.38
2018-07-23T05:35:55.557Z,18.32
2018-07-23T05:38:30.739Z,18.37
2018-07-23T05:41:02.559Z,18.46
2018-07-23T05:43:33.585Z,18.53
2018-07-23T05:46:05.959Z,18.60
2018-07-23T05:48:39.650Z,18.67
2018-07-23T05:51:11.248Z,18.85
2018-07-23T05:53:42.548Z,18.92
2018-07-23T05:56:13.937Z,18.92
2018-07-23T05:58:44.823Z,19.05
2018-07-23T06:01:15.778Z,19.25
2018-07-23T06:03:46.670Z,19.53
2018-07-23T06:06:19.375Z,19.43
2018-07-23T06:08:50.865Z,19.42
2018-07-23T06:11:22.312Z,19.40
2018-07-23T06:13:55.306Z,19.47
2018-07-23T06:16:26.882Z,19.45
2018-07-23T06:19:04.197Z,19.55
2018-07-23T06:21:35.579Z,19.78
2018-07-23T06:24:07.397Z,19.96
2018-07-23T06:26:38.435Z,19.98
2018-07-23T06:29:09.564Z,20.18
2018-07-23T06:31:40.844Z,20.04
2018-07-23T06:34:13.654Z,20.22
2018-07-23T06:36:44.741Z,20.29
2018-07-23T06:39:15.698Z,20.37
2018-07-23T06:41:46.729Z,20.42
2018-07-23T06:44:17.768Z,20.46
2018-07-23T06:46:52.399Z,20.66
2018-07-23T06:49:24.073Z,20.66
2018-07-23T06:51:55.278Z,20.75
2018-07-23T06:54:26.366Z,20.93
2018-07-23T06:56:57.527Z,21.04
2018-07-23T06:59:28.843Z,20.99
2018-07-23T07:02:07.130Z,21.00
2018-07-23T07:04:44.549Z,21.23
2018-07-23T07:07:15.849Z,21.10
2018-07-23T07:09:46.831Z,21.23
2018-07-23T07:12:19.622Z,21.44
2018-07-23T07:14:51.922Z,21.50
2018-07-23T07:17:23.732Z,21.59
2018-07-23T07:19:55.080Z,21.54
2018-07-23T07:22:26.001Z,21.20
2018-07-23T07:24:57.278Z,21.36
2018-07-23T07:27:28.577Z,21.76
2018-07-23T07:30:00.252Z,21.96
2018-07-23T07:32:31.343Z,22.00
2018-07-23T07:35:05.058Z,22.14
2018-07-23T07:37:36.247Z,22.21
2018-07-23T07:40:07.309Z,21.91
2018-07-23T07:42:38.308Z,21.88
2018-07-23T07:45:09.652Z,22.24
2018-07-23T07:47:42.492Z,22.24
2018-07-23T07:50:18.775Z,22.18
2018-07-23T07:52:57.590Z,22.39
2018-07-23T07:55:30.712Z,22.63
2018-07-23T07:58:15.231Z,22.65
2018-07-23T08:00:49.529Z,22.69
2018-07-23T08:03:24.722Z,22.91
2018-07-23T08:06:12.468Z,22.99
2018-07-23T08:08:52.589Z,23.12
2018-07-23T08:11:25.715Z,23.24
2018-07-23T08:13:56.854Z,23.42
2018-07-23T08:16:30.644Z,23.17
2018-07-23T08:19:02.333Z,23.35
2018-07-23T08:21:33.635Z,23.45
2018-07-23T08:24:05.107Z,23.48
2018-07-23T08:26:36.898Z,23.49
2018-07-23T08:29:09.534Z,23.75
2018-07-23T08:31:40.914Z,23.83
2018-07-23T08:34:11.988Z,23.60
2018-07-23T08:36:43.187Z,23.72
2018-07-23T08:39:14.353Z,23.77
2018-07-23T08:41:45.283Z,23.88
2018-07-23T08:44:16.705Z,23.41
2018-07-23T08:46:48.723Z,23.69
2018-07-23T08:49:19.803Z,23.52
2018-07-23T08:51:50.986Z,23.17
2018-07-23T08:54:25.048Z,23.20
2018-07-23T08:56:56.346Z,23.55
2018-07-23T08:59:27.398Z,23.83
2018-07-23T09:01:58.568Z,23.89
2018-07-23T09:04:29.988Z,24.19
2018-07-23T09:07:01.199Z,23.77
2018-07-23T09:09:32.721Z,23.54
2018-07-23T09:12:04.218Z,23.63
2018-07-23T09:14:35.798Z,23.56
2018-07-23T09:17:06.984Z,23.80
2018-07-23T09:19:38.195Z,24.20
2018-07-23T09:22:09.788Z,24.48
2018-07-23T09:24:41.000Z,24.58
2018-07-23T09:27:12.987Z,24.60
2018-07-23T09:29:44.143Z,24.46
2018-07-23T09:32:15.355Z,24.00
2018-07-23T09:34:46.580Z,24.17
2018-07-23T09:37:19.324Z,24.53
2018-07-23T09:39:50.309Z,24.70
2018-07-23T09:42:21.316Z,24.84
2018-07-23T09:45:05.084Z,24.49
2018-07-23T09:47:52.558Z,24.85
2018-07-23T09:50:35.292Z,24.64
2018-07-23T09:53:09.003Z,24.28
2018-07-23T09:55:45.676Z,23.95
2018-07-23T09:58:19.639Z,23.97
2018-07-23T10:00:55.333Z,24.02
2018-07-23T10:03:26.702Z,24.04
2018-07-23T10:05:58.741Z,23.89
2018-07-23T10:08:30.716Z,24.17
2018-07-23T10:11:02.217Z,24.57
2018-07-23T10:13:33.327Z,24.91
2018-07-23T10:16:04.691Z,24.99
2018-07-23T10:18:38.873Z,25.24
2018-07-23T10:21:11.571Z,25.49
2018-07-23T10:23:42.665Z,25.62
2018-07-23T10:26:16.714Z,25.58
2018-07-23T10:28:47.987Z,25.37
2018-07-23T10:31:19.173Z,25.40
2018-07-23T10:33:50.134Z,25.42
2018-07-23T10:36:21.222Z,25.75
2018-07-23T10:38:53.016Z,26.12
2018-07-23T10:41:23.968Z,25.86
2018-07-23T10:43:55.500Z,25.44
2018-07-23T10:46:26.581Z,25.45
2018-07-23T10:48:57.572Z,25.52
2018-07-23T10:51:29.517Z,25.35
2018-07-23T10:54:01.856Z,25.04
2018-07-23T10:56:40.763Z,25.19
2018-07-23T10:59:12.124Z,25.12
2018-07-23T11:01:43.534Z,25.05
2018-07-23T11:07:17.065Z,25.88
2018-07-23T11:09:48.375Z,26.01
2018-07-23T11:12:19.919Z,25.83
2018-07-23T11:14:51.564Z,26.26
2018-07-23T11:17:22.532Z,26.34
2018-07-23T11:19:53.551Z,26.56
2018-07-23T11:22:30.730Z,26.64
2018-07-23T11:25:38.219Z,26.58
2018-07-23T11:27:33.039Z,26.73
2018-07-23T11:30:04.588Z,26.29
2018-07-23T11:32:36.246Z,25.80
2018-07-23T11:35:07.555Z,25.65
2018-07-23T11:37:38.568Z,25.47
2018-07-23T11:40:09.760Z,25.47
2018-07-23T11:42:45.091Z,25.62
2018-07-23T11:45:20.787Z,25.45
2018-07-23T11:48:00.113Z,25.31
2018-07-23T11:50:33.400Z,25.27
2018-07-23T11:53:05.651Z,25.48
2018-07-23T11:55:37.196Z,25.73
2018-07-23T11:58:09.678Z,25.80
2018-07-23T12:00:41.652Z,26.24
2018-07-23T12:03:14.558Z,26.49
2018-07-23T12:05:45.895Z,26.58
2018-07-23T12:08:16.817Z,26.64
2018-07-23T12:10:48.175Z,26.54
2018-07-23T12:13:19.141Z,26.21
2018-07-23T12:15:50.724Z,26.03
2018-07-23T12:18:21.825Z,25.83
2018-07-23T12:20:56.455Z,25.79
2018-07-23T12:23:27.437Z,25.74
2018-07-23T12:25:58.788Z,25.70
2018-07-23T12:28:29.642Z,25.52
2018-07-23T12:31:00.877Z,25.30
2018-07-23T12:33:31.869Z,25.39
2018-07-23T12:36:02.792Z,25.56
2018-07-23T12:38:33.860Z,26.12
2018-07-23T12:41:04.788Z,26.26
2018-07-23T12:43:35.660Z,25.90
2018-07-23T12:46:08.631Z,26.40
2018-07-23T12:48:39.807Z,26.27
2018-07-23T12:51:12.128Z,26.48
2018-07-23T12:53:43.016Z,26.66
2018-07-23T12:56:14.485Z,26.90
2018-07-23T12:58:45.427Z,27.14
2018-07-23T13:01:17.549Z,26.96
2018-07-23T13:03:48.579Z,27.01
2018-07-23T13:06:19.944Z,26.77
2018-07-23T13:08:50.948Z,26.89
2018-07-23T13:11:23.170Z,27.08
2018-07-23T13:13:54.499Z,27.45
2018-07-23T13:16:25.842Z,27.34
2018-07-23T13:18:57.338Z,27.48
2018-07-23T13:21:28.680Z,27.73
2018-07-23T13:23:59.990Z,27.40
2018-07-23T13:26:32.301Z,26.88
2018-07-23T13:29:07.863Z,26.69
2018-07-23T13:32:00.478Z,26.53
2018-07-23T13:34:37.728Z,26.70
2018-07-23T13:37:13.684Z,26.94
2018-07-23T13:39:45.627Z,26.51
2018-07-23T13:42:19.369Z,26.32
2018-07-23T13:44:51.018Z,26.65
2018-07-23T13:47:26.498Z,26.84
2018-07-23T13:49:59.667Z,27.34
2018-07-23T13:52:32.699Z,27.34
2018-07-23T13:55:05.800Z,27.12
2018-07-23T13:57:41.272Z,26.96
2018-07-23T14:00:14.637Z,26.71
2018-07-23T14:02:46.523Z,26.73
2018-07-23T14:05:18.187Z,26.34
2018-07-23T14:07:49.267Z,26.53
2018-07-23T14:10:21.076Z,26.92
2018-07-23T14:12:52.599Z,26.86
2018-07-23T14:15:23.955Z,26.82
2018-07-23T14:17:55.295Z,26.59
2018-07-23T14:20:26.580Z,26.59
2018-07-23T14:22:58.089Z,26.58
2018-07-23T14:25:29.453Z,26.42
2018-07-23T14:28:01.028Z,26.35
2018-07-23T14:30:32.216Z,26.53
2018-07-23T14:33:04.173Z,26.76
2018-07-23T14:35:35.810Z,26.63
2018-07-23T14:38:07.961Z,26.37
2018-07-23T14:40:39.362Z,26.51
2018-07-23T14:43:10.783Z,26.88
2018-07-23T14:45:42.302Z,26.92
2018-07-23T14:48:13.782Z,26.56
2018-07-23T14:50:45.073Z,26.35
2018-07-23T14:53:16.606Z,26.67
2018-07-23T14:55:47.695Z,26.60
2018-07-23T14:58:19.342Z,26.61
2018-07-23T15:00:51.027Z,26.38
2018-07-23T15:03:22.207Z,26.09
2018-07-23T15:05:53.436Z,25.94
2018-07-23T15:08:24.819Z,25.78
2018-07-23T15:10:55.884Z,25.99
2018-07-23T15:13:27.082Z,26.34
2018-07-23T15:15:58.321Z,26.67
2018-07-23T15:18:29.537Z,26.87
2018-07-23T15:21:00.736Z,26.75
2018-07-23T15:23:32.239Z,26.59
2018-07-23T15:26:04.596Z,26.63
2018-07-23T15:28:39.471Z,26.74
2018-07-23T15:31:12.306Z,26.72
2018-07-23T15:33:46.445Z,26.83
2018-07-23T15:36:19.874Z,27.07
2018-07-23T15:38:52.308Z,27.01
2018-07-23T15:41:24.489Z,26.73
2018-07-23T15:43:56.922Z,26.72
2018-07-23T15:46:30.028Z,26.77
2018-07-23T15:49:02.986Z,26.55
2018-07-23T15:51:35.657Z,26.43
2018-07-23T15:54:09.137Z,26.78
2018-07-23T15:56:40.395Z,27.00
2018-07-23T15:59:12.909Z,27.07
2018-07-23T16:01:45.626Z,27.02
2018-07-23T16:04:19.260Z,26.84
2018-07-23T16:06:51.465Z,26.90
2018-07-23T16:09:23.520Z,26.78
2018-07-23T16:11:54.864Z,26.49
2018-07-23T16:14:26.266Z,26.45
2018-07-23T16:16:57.458Z,26.47
2018-07-23T16:19:28.756Z,26.54
2018-07-23T16:22:00.356Z,26.53
2018-07-23T16:24:33.215Z,26.46
2018-07-23T16:27:04.410Z,26.58
2018-07-23T16:29:35.333Z,26.74
2018-07-23T16:32:06.992Z,26.60
2018-07-23T16:34:38.316Z,26.43
2018-07-23T16:37:09.554Z,26.33
2018-07-23T16:39:41.104Z,26.28
2018-07-23T16:42:12.719Z,26.34
2018-07-23T16:44:55.139Z,26.50
2018-07-23T16:47:27.338Z,26.70
2018-07-23T16:50:10.065Z,26.58
2018-07-23T16:52:41.391Z,26.48
2018-07-23T16:55:12.210Z,26.50
2018-07-23T16:57:43.293Z,26.63
2018-07-23T17:00:15.069Z,26.60
2018-07-23T17:02:50.483Z,26.45
2018-07-23T17:05:23.826Z,26.35
2018-07-23T17:07:56.654Z,26.28
2018-07-23T17:10:28.419Z,26.17
2018-07-23T17:12:59.374Z,26.11
2018-07-23T17:15:32.168Z,26.03
2018-07-23T17:18:04.239Z,26.07
2018-07-23T17:20:35.451Z,25.87
2018-07-23T17:23:07.078Z,25.78
2018-07-23T17:25:39.383Z,25.80
2018-07-23T17:28:14.499Z,25.68
2018-07-23T17:30:48.475Z,25.77
2018-07-23T17:33:22.385Z,25.79
2018-07-23T17:35:55.628Z,25.86
2018-07-23T17:38:27.164Z,25.70
2018-07-23T17:41:01.029Z,25.84
2018-07-23T17:43:35.535Z,25.75
2018-07-23T17:46:08.516Z,25.63
2018-07-23T17:48:40.155Z,25.68
2018-07-23T17:51:20.392Z,25.79
2018-07-23T17:53:56.337Z,25.76
2018-07-23T17:56:33.915Z,25.70
2018-07-23T17:59:10.761Z,25.74
2018-07-23T18:01:42.268Z,25.66
2018-07-23T18:04:13.250Z,25.71
2018-07-23T18:06:44.338Z,25.56
2018-07-23T18:09:18.304Z,25.67
2018-07-23T18:11:52.436Z,25.55
2018-07-23T18:14:23.688Z,25.53
2018-07-23T18:16:58.460Z,25.43
2018-07-23T18:19:46.854Z,25.45
2018-07-23T18:22:25.932Z,25.35
2018-07-23T18:25:04.142Z,25.40
2018-07-23T18:27:41.407Z,25.46
2018-07-23T18:30:21.148Z,25.39
2018-07-23T18:33:00.717Z,25.27
2018-07-23T18:35:51.155Z,25.11
2018-07-23T18:38:36.358Z,24.87
2018-07-23T18:41:10.654Z,25.03
2018-07-23T18:43:50.934Z,24.95
2018-07-23T18:46:30.393Z,24.92
2018-07-23T18:49:25.490Z,24.84
2018-07-23T18:51:58.736Z,24.70
2018-07-23T18:54:39.321Z,24.62
2018-07-23T18:57:14.557Z,24.43
2018-07-23T18:59:52.610Z,24.36
2018-07-23T19:02:26.365Z,24.29
2018-07-23T19:05:01.277Z,24.09
2018-07-23T19:07:41.699Z,24.04
2018-07-23T19:10:16.920Z,23.80
2018-07-23T19:12:57.271Z,23.59
2018-07-23T19:15:34.511Z,23.38
2018-07-23T19:18:12.960Z,23.32
2018-07-23T19:20:52.520Z,23.15
2018-07-23T19:23:26.331Z,23.06
2018-07-23T19:25:58.527Z,22.98
2018-07-23T19:28:32.235Z,23.00
2018-07-23T19:31:03.488Z,22.91
2018-07-23T19:33:34.492Z,22.92
2018-07-23T19:36:06.226Z,23.00
2018-07-23T19:38:38.169Z,22.69
2018-07-23T19:41:13.002Z,22.63
2018-07-23T19:43:45.463Z,22.52
2018-07-23T19:46:17.177Z,22.42
2018-07-23T19:48:50.602Z,22.32
2018-07-23T19:51:21.793Z,22.22
2018-07-23T19:53:53.611Z,22.16
2018-07-23T19:56:25.870Z,22.35
2018-07-23T19:58:57.623Z,22.33
2018-07-23T20:01:29.262Z,22.27
2018-07-23T20:04:01.866Z,22.09
2018-07-23T20:06:33.704Z,22.26
2018-07-23T20:09:07.443Z,22.09
2018-07-23T20:11:38.544Z,22.01
2018-07-23T20:14:09.541Z,21.99
2018-07-23T20:16:40.585Z,21.86
2018-07-23T20:19:11.647Z,21.90
2018-07-23T20:21:43.011Z,21.80
2018-07-23T20:24:14.119Z,21.59
2018-07-23T20:26:45.050Z,21.52
2018-07-23T20:29:16.111Z,21.65
2018-07-23T20:31:48.617Z,21.58
2018-07-23T20:34:19.712Z,21.58
2018-07-23T20:36:50.849Z,21.50
2018-07-23T20:39:22.331Z,21.33
2018-07-23T20:41:53.522Z,21.15
2018-07-23T20:44:27.619Z,20.99
2018-07-23T20:47:00.991Z,21.03
2018-07-23T20:49:34.807Z,21.09
2018-07-23T20:52:09.354Z,20.95
2018-07-23T20:54:40.563Z,20.90
2018-07-23T20:57:12.537Z,20.81
2018-07-23T20:59:44.267Z,20.70
2018-07-23T21:02:15.379Z,20.66
2018-07-23T21:04:46.490Z,20.61
2018-07-23T21:07:17.546Z,20.67
2018-07-23T21:09:49.243Z,20.48
2018-07-23T21:12:20.328Z,20.62
2018-07-23T21:14:52.627Z,20.51
2018-07-23T21:21:07.695Z,20.22
2018-07-23T21:23:38.847Z,20.18
2018-07-23T21:26:10.571Z,19.98
2018-07-23T21:28:41.639Z,20.02
2018-07-23T21:31:12.802Z,20.12
2018-07-23T21:33:43.988Z,19.96
2018-07-23T21:36:15.217Z,19.75
2018-07-23T21:38:46.296Z,19.72
2018-07-23T21:41:18.053Z,19.74
2018-07-23T21:43:49.095Z,19.66
2018-07-23T21:46:20.704Z,19.64
2018-07-23T21:48:51.975Z,19.49
2018-07-23T21:51:23.382Z,19.44
2018-07-23T21:53:54.673Z,19.57
2018-07-23T21:56:26.272Z,19.42
2018-07-23T21:58:57.697Z,19.32
2018-07-23T22:01:29.244Z,19.38
2018-07-23T22:04:00.578Z,19.40
2018-07-23T22:06:31.930Z,19.35
2018-07-23T22:09:03.285Z,19.30
2018-07-23T22:11:34.731Z,19.10
2018-07-23T22:14:07.248Z,19.12
2018-07-23T22:16:39.007Z,19.08
2018-07-23T22:19:09.919Z,19.08
2018-07-23T22:21:42.090Z,18.89
2018-07-23T22:24:13.179Z,18.83
2018-07-23T22:26:44.355Z,19.00
2018-07-23T22:29:15.225Z,18.81
2018-07-23T22:31:46.730Z,18.69
2018-07-23T22:34:18.283Z,18.72
2018-07-23T22:36:49.760Z,18.75
2018-07-23T22:39:20.885Z,18.62
2018-07-23T22:41:52.104Z,18.49
2018-07-23T22:44:23.193Z,18.57
2018-07-23T22:46:54.392Z,18.61
2018-07-23T22:49:26.436Z,18.62
2018-07-23T22:51:57.644Z,18.43
2018-07-23T22:54:28.786Z,18.51
2018-07-23T22:56:59.933Z,18.53
2018-07-23T22:59:31.621Z,18.53
2018-07-23T23:02:03.937Z,18.44
2018-07-23T23:04:35.156Z,18.18
2018-07-23T23:07:06.412Z,18.23
2018-07-23T23:09:37.427Z,18.21
2018-07-23T23:12:08.799Z,18.23
2018-07-23T23:14:39.719Z,18.19
2018-07-23T23:17:10.850Z,18.00
2018-07-23T23:19:41.927Z,17.96
2018-07-23T23:22:13.134Z,17.98
2018-07-23T23:24:44.319Z,17.95
2018-07-23T23:27:15.521Z,17.85
2018-07-23T23:29:46.664Z,17.87
2018-07-23T23:32:17.707Z,17.86
2018-07-23T23:34:48.751Z,17.94
2018-07-23T23:37:20.016Z,17.84
2018-07-23T23:39:51.342Z,17.82
2018-07-23T23:42:22.829Z,17.83
2018-07-23T23:44:53.887Z,17.81
2018-07-23T23:47:25.285Z,17.82
2018-07-23T23:49:56.495Z,17.63
2018-07-23T23:52:31.805Z,17.64
2018-07-23T23:55:03.624Z,17.60
2018-07-23T23:57:36.146Z,17.63
